createdAt,value
2023-01-13T00:02:45.343Z,6.36
2023-01-13T00:07:49.208Z,6.36
2023-01-13T00:12:51.901Z,6.33
2023-01-13T00:17:54.071Z,6.35
2023-01-13T00:22:57.140Z,6.36
2023-01-13T00:27:59.217Z,6.36
2023-01-13T00:33:01.846Z,6.36
2023-01-13T00:38:03.955Z,6.36
2023-01-13T00:43:24.138Z,6.36
2023-01-13T00:48:27.596Z,6.36
2023-01-13T00:53:33.949Z,6.35
2023-01-13T00:58:36.549Z,6.36
2023-01-13T01:03:38.882Z,6.36
2023-01-13T01:08:41.227Z,6.36
2023-01-13T01:13:45.367Z,6.37
2023-01-13T01:18:49.460Z,6.36
2023-01-13T01:23:51.770Z,6.36
2023-01-13T01:28:54.303Z,6.38
2023-01-13T01:33:56.395Z,6.36
2023-01-13T01:38:59.847Z,6.39
2023-01-13T01:44:26.743Z,6.39
2023-01-13T01:49:34.158Z,6.35
2023-01-13T01:54:42.486Z,6.36
2023-01-13T01:59:45.313Z,6.39
2023-01-13T02:04:52.553Z,6.38
2023-01-13T02:10:02.049Z,6.39
2023-01-13T02:15:07.863Z,6.40
2023-01-13T02:20:22.080Z,6.40
2023-01-13T02:25:56.448Z,6.40
2023-01-13T02:31:26.825Z,6.40
2023-01-13T02:36:41.604Z,6.39
2023-01-13T02:42:21.590Z,6.40
2023-01-13T02:47:27.255Z,6.42
2023-01-13T02:52:34.887Z,6.41
2023-01-13T02:57:38.855Z,6.41
2023-01-13T03:02:40.933Z,6.39
2023-01-13T03:07:46.366Z,6.41
2023-01-13T03:13:04.716Z,6.40
2023-01-13T03:18:24.823Z,6.41
2023-01-13T03:23:46.387Z,6.40
2023-01-13T03:29:22.363Z,6.41
2023-01-13T03:34:31.263Z,6.39
2023-01-13T03:39:39.052Z,6.41
2023-01-13T03:44:48.019Z,6.42
2023-01-13T03:50:05.751Z,6.40
2023-01-13T03:55:12.294Z,6.43
2023-01-13T04:00:15.919Z,6.42
2023-01-13T04:05:19.061Z,6.40
2023-01-13T04:10:28.716Z,6.44
2023-01-13T04:15:43.371Z,6.39
2023-01-13T04:20:46.297Z,6.44
2023-01-13T04:25:49.721Z,6.44
2023-01-13T04:30:52.288Z,6.43
2023-01-13T04:35:55.345Z,6.46
2023-01-13T04:40:57.370Z,6.42
2023-01-13T04:45:59.463Z,6.43
2023-01-13T04:51:01.575Z,6.42
2023-01-13T04:56:03.611Z,6.42
2023-01-13T05:01:05.614Z,6.42
2023-01-13T05:06:07.685Z,6.43
2023-01-13T05:11:28.340Z,6.43
2023-01-13T05:16:48.615Z,6.45
2023-01-13T05:22:29.041Z,6.43
2023-01-13T05:27:31.732Z,6.41
2023-01-13T05:32:33.814Z,6.46
2023-01-13T05:37:36.186Z,6.47
2023-01-13T05:42:56.801Z,6.47
2023-01-13T05:47:58.715Z,6.49
2023-01-13T05:53:00.709Z,6.50
2023-01-13T05:58:02.700Z,6.49
2023-01-13T06:03:05.650Z,6.52
2023-01-13T06:08:08.621Z,6.49
2023-01-13T06:13:10.859Z,6.51
2023-01-13T06:18:12.918Z,6.52
2023-01-13T06:23:15.049Z,6.52
2023-01-13T06:28:17.206Z,6.53
2023-01-13T06:33:24.236Z,6.51
2023-01-13T06:38:30.302Z,6.54
2023-01-13T06:43:32.434Z,6.55
2023-01-13T06:48:35.810Z,6.56
2023-01-13T06:53:37.934Z,6.54
2023-01-13T06:58:39.984Z,6.54
2023-01-13T07:03:42.121Z,6.54
2023-01-13T07:08:44.241Z,6.51
2023-01-13T07:14:04.894Z,6.51
2023-01-13T07:19:06.810Z,6.54
2023-01-13T07:24:08.866Z,6.52
2023-01-13T07:29:11.144Z,6.54
2023-01-13T07:34:13.128Z,6.54
2023-01-13T07:39:15.448Z,6.55
2023-01-13T07:44:17.677Z,6.54
2023-01-13T07:49:19.867Z,6.56
2023-01-13T07:54:35.104Z,6.57
2023-01-13T07:59:41.621Z,6.56
2023-01-13T08:04:43.671Z,6.58
2023-01-13T08:09:45.824Z,6.58
2023-01-13T08:14:47.905Z,6.60
2023-01-13T08:19:50.195Z,6.57
2023-01-13T08:24:52.256Z,6.63
2023-01-13T08:29:54.365Z,6.58
2023-01-13T08:34:56.575Z,6.64
2023-01-13T08:39:58.607Z,6.66
2023-01-13T08:45:00.739Z,6.68
2023-01-13T08:50:03.120Z,6.69
2023-01-13T08:55:05.678Z,6.70
2023-01-13T09:00:07.953Z,6.73
2023-01-13T09:05:11.437Z,6.73
2023-01-13T09:10:13.873Z,6.74
2023-01-13T09:15:18.833Z,6.77
2023-01-13T09:20:21.034Z,6.78
2023-01-13T09:25:23.231Z,6.81
2023-01-13T09:30:25.368Z,6.81
2023-01-13T09:35:27.473Z,6.84
2023-01-13T09:40:29.630Z,6.88
2023-01-13T09:45:55.520Z,6.95
2023-01-13T09:51:15.003Z,6.96
2023-01-13T09:56:18.503Z,6.97
2023-01-13T10:01:23.315Z,7.03
2023-01-13T10:06:34.416Z,7.10
2023-01-13T10:12:07.803Z,7.17
2023-01-13T10:17:26.359Z,7.19
2023-01-13T10:22:54.390Z,7.22
2023-01-13T10:28:02.485Z,7.23
2023-01-13T10:33:15.467Z,7.29
2023-01-13T10:38:39.001Z,7.36
2023-01-13T10:43:58.087Z,7.42
2023-01-13T10:49:03.062Z,7.45
2023-01-13T10:54:25.833Z,7.51
2023-01-13T10:59:27.991Z,7.51
2023-01-13T11:04:30.124Z,7.57
2023-01-13T11:09:33.508Z,7.61
2023-01-13T11:14:53.839Z,7.63
2023-01-13T11:20:06.524Z,7.67
2023-01-13T11:25:18.652Z,7.70
2023-01-13T11:30:45.538Z,7.72
2023-01-13T11:35:53.997Z,7.77
2023-01-13T11:41:00.731Z,7.77
2023-01-13T11:46:03.269Z,7.79
2023-01-13T11:51:14.224Z,7.81
2023-01-13T11:57:02.564Z,7.84
2023-01-13T12:02:19.521Z,7.87
2023-01-13T12:07:27.491Z,7.91
2023-01-13T12:12:33.357Z,7.95
2023-01-13T12:17:50.062Z,7.94
2023-01-13T12:22:54.934Z,7.95
2023-01-13T12:28:04.573Z,8.00
2023-01-13T12:33:19.995Z,8.01
2023-01-13T12:38:59.897Z,8.02
2023-01-13T12:44:18.172Z,8.02
2023-01-13T12:49:24.983Z,8.08
2023-01-13T12:54:41.793Z,8.09
2023-01-13T13:00:05.294Z,8.10
2023-01-13T13:05:25.874Z,8.12
2023-01-13T13:10:34.897Z,8.12
2023-01-13T13:15:37.549Z,8.13
2023-01-13T13:21:07.294Z,8.15
2023-01-13T13:26:25.756Z,8.15
2023-01-13T13:31:55.525Z,8.13
2023-01-13T13:37:31.486Z,8.11
2023-01-13T13:43:14.225Z,8.09
2023-01-13T13:48:34.633Z,8.06
2023-01-13T13:53:39.573Z,8.05
2023-01-13T13:58:41.720Z,8.00
2023-01-13T14:03:43.893Z,8.00
2023-01-13T14:08:50.545Z,7.99
2023-01-13T14:14:16.557Z,7.98
2023-01-13T14:19:30.906Z,7.95
2023-01-13T14:24:33.279Z,7.96
2023-01-13T14:29:35.491Z,7.94
2023-01-13T14:34:39.284Z,7.94
2023-01-13T14:39:41.811Z,7.93
2023-01-13T14:44:49.164Z,7.90
2023-01-13T14:50:06.291Z,7.89
2023-01-13T14:55:10.350Z,7.88
2023-01-13T15:00:15.233Z,7.85
2023-01-13T15:05:20.397Z,7.83
2023-01-13T15:10:38.407Z,7.82
2023-01-13T15:15:40.521Z,7.77
2023-01-13T15:20:43.016Z,7.78
2023-01-13T15:25:46.642Z,7.77
2023-01-13T15:30:50.265Z,7.73
2023-01-13T15:35:55.119Z,7.73
2023-01-13T15:40:57.307Z,7.71
2023-01-13T15:46:18.738Z,7.70
2023-01-13T15:51:21.521Z,7.67
2023-01-13T15:56:27.205Z,7.67
2023-01-13T16:01:29.461Z,7.64
2023-01-13T16:06:36.635Z,7.62
2023-01-13T16:11:38.810Z,7.63
2023-01-13T16:16:41.120Z,7.62
2023-01-13T16:21:43.088Z,7.61
2023-01-13T16:26:46.420Z,7.56
2023-01-13T16:31:48.624Z,7.56
2023-01-13T16:36:50.749Z,7.55
2023-01-13T16:41:53.170Z,7.52
2023-01-13T16:46:55.029Z,7.54
2023-01-13T16:51:57.244Z,7.52
2023-01-13T16:56:59.341Z,7.49
2023-01-13T17:02:02.633Z,7.45
2023-01-13T17:07:08.710Z,7.44
2023-01-13T17:12:12.689Z,7.44
2023-01-13T17:17:23.435Z,7.40
2023-01-13T17:22:25.756Z,7.44
2023-01-13T17:27:28.399Z,7.43
2023-01-13T17:32:30.650Z,7.40
2023-01-13T17:37:33.297Z,7.40
2023-01-13T17:42:37.475Z,7.37
2023-01-13T17:47:40.031Z,7.36
2023-01-13T17:52:42.402Z,7.34
2023-01-13T17:57:44.711Z,7.33
2023-01-13T18:02:46.956Z,7.32
2023-01-13T18:07:50.429Z,7.29
2023-01-13T18:12:53.021Z,7.24
2023-01-13T18:17:56.153Z,7.26
2023-01-13T18:23:17.036Z,7.23
2023-01-13T18:28:20.091Z,7.19
2023-01-13T18:33:22.993Z,7.13
2023-01-13T18:38:27.990Z,7.12
2023-01-13T18:43:34.248Z,7.08
2023-01-13T18:48:36.750Z,7.05
2023-01-13T18:53:38.831Z,7.04
2023-01-13T18:58:54.023Z,7.02
2023-01-13T19:03:58.547Z,6.98
2023-01-13T19:09:10.795Z,6.96
2023-01-13T19:14:34.701Z,6.88
2023-01-13T19:19:51.179Z,6.87
2023-01-13T19:24:55.298Z,6.83
2023-01-13T19:29:58.656Z,6.78
2023-01-13T19:35:02.904Z,6.76
2023-01-13T19:40:10.005Z,6.70
2023-01-13T19:45:29.578Z,6.67
2023-01-13T19:50:35.599Z,6.64
2023-01-13T19:55:38.342Z,6.57
2023-01-13T20:00:47.586Z,6.50
2023-01-13T20:05:50.973Z,6.49
2023-01-13T20:11:13.972Z,6.47
2023-01-13T20:16:17.229Z,6.41
2023-01-13T20:21:20.559Z,6.38
2023-01-13T20:26:24.182Z,6.30
2023-01-13T20:31:28.022Z,6.29
2023-01-13T20:36:38.347Z,6.25
2023-01-13T20:41:59.281Z,6.23
2023-01-13T20:47:03.299Z,6.20
2023-01-13T20:52:10.095Z,6.18
2023-01-13T20:57:13.328Z,6.13
2023-01-13T21:02:16.957Z,6.08
2023-01-13T21:07:19.341Z,6.07
2023-01-13T21:12:40.120Z,6.04
2023-01-13T21:18:01.855Z,6.01
2023-01-13T21:23:04.971Z,5.99
2023-01-13T21:28:08.725Z,5.95
2023-01-13T21:33:14.364Z,5.88
2023-01-13T21:38:16.705Z,5.89
2023-01-13T21:43:37.243Z,5.87
2023-01-13T21:48:39.435Z,5.84
2023-01-13T21:53:41.490Z,5.82
2023-01-13T21:58:44.194Z,5.80
2023-01-13T22:04:05.739Z,5.74
2023-01-13T22:09:07.811Z,5.70
2023-01-13T22:14:10.670Z,5.68
2023-01-13T22:19:12.877Z,5.65
2023-01-13T22:24:15.713Z,5.59
2023-01-13T22:29:18.643Z,5.60
2023-01-13T22:34:21.010Z,5.54
2023-01-13T22:39:23.107Z,5.52
2023-01-13T22:44:25.698Z,5.49
2023-01-13T22:49:27.599Z,5.47
2023-01-13T22:54:29.842Z,5.42
2023-01-13T22:59:32.328Z,5.35
2023-01-13T23:04:34.929Z,5.37
2023-01-13T23:09:36.874Z,5.33
2023-01-13T23:14:38.981Z,5.25
2023-01-13T23:19:41.046Z,5.25
2023-01-13T23:24:43.104Z,5.23
2023-01-13T23:29:45.208Z,5.16
2023-01-13T23:34:47.438Z,5.17
2023-01-13T23:39:49.740Z,5.13
2023-01-13T23:44:52.287Z,5.10
2023-01-13T23:49:54.467Z,5.09
2023-01-13T23:54:57.618Z,5.01
2023-01-13T23:59:59.935Z,5.01
